0,00 -
Pkt Einheit
Index Typ
0,00% %
0,00 abs
ISIN: US78378X1072 WKN: A0AET0 Börse: JFD Bank Datum: -

S&P 500 Index

Name Kurs +/- abs. +/- % Zeit 1 Woche % 1 Monat % 3 Monate % 6 Monate % 1 Jahr % 10 Jahre %
3M Co. 168,790 0,230 0,14 13.12.19 -1,56 -1,80 -1,55 1,26 -13,93 104,10
Abbott Laboratories 86,350 0,380 0,44 13.12.19 1,02 0,75 2,47 5,02 22,03 242,55
AbbVie Inc. 87,840 -0,890 -1,00 13.12.19 0,99 -0,89 24,58 11,63 2,60
Abiomed Inc. 181,790 3,080 1,72 13.12.19 -3,93 -18,60 -2,48 -27,56 -42,51 2.092,88
Accenture PLC 206,660 2,740 1,34 13.12.19 2,03 5,00 6,19 11,73 32,87 398,70
Activision Blizzard Inc. 58,665 0,105 0,18 13.12.19 6,26 9,78 4,85 28,59 22,86 443,19
Adobe Inc. 316,890 10,930 3,57 13.12.19 3,45 6,52 13,85 15,54 37,78 771,53
Advance Auto Parts Inc. 155,210 -0,910 -0,58 13.12.19 0,38 -4,58 -1,14 2,25 -5,23 282,38
Advanced Micro Devices Inc. 41,140 -1,475 -3,46 13.12.19 3,81 6,69 34,05 35,51 106,73 366,44
AES Corp., The 18,920 -0,010 -0,05 13.12.19 1,07 2,55 19,82 10,71 18,62 38,41
Affiliated Managers Group Inc. 85,110 -1,830 -2,10 13.12.19 -0,37 0,13 -4,01 -3,68 -10,89 31,69
AFLAC Inc. 53,170 -0,730 -1,35 13.12.19 0,34 -2,26 2,70 -3,40 19,19 127,47
Agilent Technologies Inc. 83,710 -1,100 -1,30 13.12.19 1,82 6,96 7,46 19,64 20,69 288,90
Air Products & Chemicals Inc. 230,740 -1,660 -0,71 13.12.19 -0,56 -4,23 3,82 5,24 48,47 181,63
Akamai Technologies Inc. 84,630 1,290 1,55 13.12.19 -0,73 -3,51 -6,39 7,64 30,00 238,11
Alaska Air Group Inc. 67,410 -0,280 -0,41 13.12.19 -1,33 -4,22 2,34 6,80 8,20
Albemarle Corp. 66,630 -1,390 -2,04 13.12.19 3,62 0,74 -3,83 -6,00 -21,58 82,85
Alexandria Real Est. Equ. Inc. 156,470 -0,380 -0,24 13.12.19 -3,38 -1,44 3,27 3,42 27,73
Alexion Pharmaceuticals Inc. 110,420 -2,050 -1,82 13.12.19 -3,05 1,92 2,81 -6,37 0,90 368,18
Align Technology Inc. 266,060 -2,340 -0,87 13.12.19 -3,51 0,79 49,92 -13,02 23,42 1.395,56
Allegion PLC 123,010 -1,460 -1,17 13.12.19 0,02 3,27 20,31 16,03 42,46
Allergan PLC 188,340 0,070 0,04 13.12.19 1,06 2,58 13,36 62,47 27,06 205,05
Alliance Data Systems Corp. 110,050 1,110 1,02 13.12.19 4,55 6,38 -17,71 -21,28 -36,45 70,12
Alliant Energy Corp. 52,940 0,320 0,61 13.12.19 -0,32 0,09 2,50 5,88
Allstate Corp., The 109,700 -0,650 -0,59 13.12.19 -1,26 -1,26 3,68 7,40 38,34 286,13
Alphabet Inc. (Class A) 1.346,870 -1,180 -0,09 13.12.19 0,56 1,00 8,62 23,99 28,06 354,16
Alphabet Inc. (Class C) 1.347,830 -2,480 -0,18 13.12.19 0,55 0,97 8,73 24,18 29,34
Altria Group Inc. 50,160 0,230 0,46 13.12.19 -0,50 4,57 19,40 -1,38 -4,87 154,62
Amazon.com Inc. 1.760,940 0,610 0,03 13.12.19 0,53 1,23 -4,26 -5,84 10,62 1.252,59
AMCOR PLC 10,560 -0,120 -1,12 13.12.19 0,86 5,39 3,33 -3,39
Ameren Corp. 75,020 0,310 0,41 13.12.19 -0,23 -2,09 -2,06 -2,20 7,46 166,98
American Airlines Group Inc. 27,480 -0,260 -0,94 13.12.19 -0,87 -4,81 -8,25 -15,91 -15,21 81,03
American Electric Power Co.Inc 92,050 0,910 1,00 13.12.19 -0,37 2,78 0,56 1,60 15,05 162,55
American Express Co. 124,720 2,080 1,70 13.12.19 3,41 3,28 4,63 2,23 17,99 204,49
American International Grp Inc 51,600 0,570 1,12 13.12.19 -0,50 -4,32 -9,93 -3,21 37,64 78,36
American Tower Corp. 212,520 2,830 1,35 13.12.19 0,15 -0,40 -1,32 0,61 27,56 418,97
American Water Works Co. Inc. 119,200 0,770 0,65 13.12.19 -2,83 0,81 -1,67 0,79 22,71 440,34
Ameriprise Financial Inc. 167,440 -0,990 -0,59 13.12.19 1,54 4,54 13,57 9,06 51,96 336,04
AmerisourceBergen Corp. 84,850 -1,940 -2,24 13.12.19 -3,84 -2,81 1,71 -0,24 7,45 229,13
AMETEK Inc. 98,560 -0,740 -0,75 13.12.19 0,01 0,40 8,67 15,97 40,02 480,92
Amgen Inc. 236,740 0,750 0,32 13.12.19 1,26 7,19 21,11 34,45 23,26 324,80
Amphenol Corp. 107,140 -0,880 -0,81 13.12.19 2,99 4,78 13,12 13,62 28,71 387,00
Analog Devices Inc. 118,770 0,950 0,81 13.12.19 2,49 4,74 1,93 14,18 36,09 290,05
Ansys Inc. 253,880 2,860 1,14 13.12.19 -1,07 7,93 19,68 28,79 69,58 519,37
Anthem Inc. 284,120 -0,300 -0,11 13.12.19 -0,40 -4,60 12,26 -0,42 3,10 380,26
AON PLC 206,150 0,270 0,13 13.12.19 0,08 3,74 8,00 8,07 34,01 444,51
Apache Corp. 21,350 -0,690 -3,13 13.12.19 6,80 -10,71 -12,28 -22,34 -29,40 -78,46
Apartment Inv. & Managem. Co. 51,150 0,150 0,29 13.12.19 -2,78 -5,66 0,75 0,04 8,44 236,73
Apple Inc. 275,150 3,690 1,36 13.12.19 1,64 3,53 25,78 42,76 66,27 891,24
Applied Materials Inc. 59,870 -0,490 -0,81 13.12.19 5,78 -3,50 16,59 45,21 83,37 342,50
Aptiv PLC 93,550 -2,260 -2,36 13.12.19 -0,23 1,34 3,74 24,19 41,85
Archer Daniels Midland Co. 45,200 0,290 0,65 13.12.19 2,94 5,44 8,58 10,81 1,32 47,52
Arconic Inc. 31,650 0,030 0,09 13.12.19 2,03 2,56 16,83 37,73 60,33
Arista Networks Inc. 192,920 0,220 0,11 13.12.19 1,42 0,16 -20,86 -18,28 -12,47
Assurant Inc. 130,150 -0,290 -0,22 13.12.19 -1,09 -1,47 4,12 22,64 44,19 337,33
AT & T Inc. 38,260 -0,090 -0,23 13.12.19 0,16 -3,14 0,92 18,27 26,60 38,62
Atmos Energy Corp. 107,050 0,540 0,51 13.12.19 0,50 -2,23 -2,44 1,96 8,71
Autodesk Inc. 179,420 1,520 0,85 13.12.19 0,06 10,92 16,90 13,44 36,44 633,82
Automatic Data Processing Inc. 168,260 1,130 0,68 13.12.19 -1,01 -1,71 5,33 1,66 24,80 365,09
AutoZone Inc. 1.235,320 4,400 0,36 13.12.19 5,34 5,41 7,49 10,31 41,79 687,28
Avalonbay Communities Inc. 208,640 -0,520 -0,25 13.12.19 -3,38 -2,75 0,74 0,26 11,63 167,04
Avery Dennison Corp. 129,990 0,370 0,29 13.12.19 -0,12 -1,58 11,53 17,76 42,53 245,53
Baker Hughes Co. 23,640 -0,120 -0,51 13.12.19 6,44 4,19 4,05 6,73 10,21
Ball Corp. 63,340 -0,070 -0,11 13.12.19 -0,33 -3,45 -12,91 -3,16 31,93 387,89
Bank of America Corp. 34,440 -0,240 -0,69 13.12.19 2,29 4,59 14,15 22,82 40,69 126,73
Baxter International Inc. 83,960 0,450 0,54 13.12.19 0,95 3,09 -3,42 7,74 27,79 163,53
Becton, Dickinson & Co. 268,720 3,280 1,24 13.12.19 3,08 8,22 3,08 14,76 16,10 246,07
Berkley, W.R. Corp. 69,560 -0,040 -0,06 13.12.19 -0,76 2,52 -2,01 6,00 39,66
Berkshire Hathaway Inc. 225,370 -0,550 -0,24 13.12.19 1,24 2,56 5,51 9,85 12,69 240,44
Best Buy Co. Inc. 84,790 -0,560 -0,66 13.12.19 3,34 9,99 25,54 28,41 53,13 104,17
Biogen Inc. 296,850 3,060 1,04 13.12.19 -1,13 5,17 25,45 30,39 -5,63 500,55
Bk of New York MellonCorp.,The 50,220 -1,000 -1,95 13.12.19 1,17 3,40 7,08 12,88 3,18 88,73
Blackrock Inc. 498,610 -3,510 -0,70 13.12.19 0,57 1,56 12,56 11,55 30,42 119,73
Block H. & R. Inc. 23,490 -0,020 -0,09 13.12.19 -0,04 -5,74 -2,81 -18,12 -12,94 12,02
Boeing Co. 341,670 -4,620 -1,33 13.12.19 -3,51 -8,07 -10,03 -1,58 7,19 514,07
Booking Holdings Inc. 1.973,270 24,110 1,24 13.12.19 2,18 6,76 -4,39 11,14 9,19 803,88
BorgWarner Inc. 43,800 -0,700 -1,57 13.12.19 1,04 -1,77 9,50 6,96 26,48 172,22
Boston Properties Inc. 135,110 -0,020 -0,01 13.12.19 -2,99 -1,78 2,82 -0,07 7,45 96,84
Boston Scientific Corp. 45,090 0,420 0,94 13.12.19 2,29 6,57 7,85 11,55 25,95 408,92
Bristol-Myers Squibb Co. 63,820 -0,120 -0,19 13.12.19 6,46 8,93 29,11 34,19 22,45 147,94
Broadcom Inc. 315,380 -11,790 -3,60 13.12.19 -0,18 0,80 8,63 18,60 23,76 1.785,12
Broadridge Financial Solutions 119,720 0,170 0,14 13.12.19 -2,67 -0,07 -3,47 -8,01 23,90
Brown-Forman Corp. Class B 63,850 0,580 0,92 13.12.19 0,79 -1,33 -0,56 13,49 35,68 257,75
C.H. Robinson Worldwide Inc. 76,540 -1,473 -1,89 13.12.19 0,74 2,44 -12,12 -8,55 -9,58 28,19
Cabot Oil & Gas Corp. 16,100 -0,060 -0,37 13.12.19 0,12 -11,39 -14,41 -32,27 -30,93 55,29
Cadence Design Systems Inc. 67,930 1,030 1,54 13.12.19 1,12 0,68 3,65 0,31 57,17 1.079,34
Campbell Soup Co. 47,860 0,150 0,31 13.12.19 0,23 1,23 3,41 13,25 22,22 38,60
Capital One Financial Corp. 104,370 0,340 0,33 13.12.19 2,95 7,18 11,48 15,24 32,57 160,34
Capri Holdings Ltd. 38,780 -0,540 -1,37 13.12.19 1,70 5,55 21,15 15,73 2,21
Cardinal Health Inc. 53,660 -1,000 -1,83 13.12.19 -2,21 -4,59 11,28 21,51 7,19 62,95
Carmax Inc. 97,880 -1,170 -1,18 13.12.19 0,52 -0,12 12,83 17,17 59,91 362,35
Carnival Corp. 47,450 0,550 1,17 13.12.19 5,99 5,80 -6,13 -10,67 -15,76 40,05
Caterpillar Inc. 145,530 -1,250 -0,85 13.12.19 1,97 0,15 8,78 14,38 14,80 150,05
Cboe Global Markets Inc. 115,500 0,080 0,07 13.12.19 -4,22 -3,34 4,00 7,20
CBRE Group Inc. 58,260 -0,700 -1,19 13.12.19 -0,41 3,22 7,89 17,55 41,96 361,28
CBS Corp. Class B 38,620 0,840 2,22 13.12.19 -2,72
CDW Corp. 137,720 0,960 0,70 13.12.19 0,77 0,86 23,28 32,12 57,02
Celanese Corp. (Del.) 124,470 -0,890 -0,71 13.12.19 -0,59 -1,18 -0,81 19,46 43,58
Centene Corp. 57,710 -0,810 -1,38 13.12.19 -5,36 0,26 27,11 7,77 -9,50
CenterPoint Energy Inc. 25,940 1,120 4,51 13.12.19 3,68 1,81 -13,10 -12,42 -11,47 78,53
Zum Index